Terminal Aerodrome Forecast
Issued by NWS Sioux Falls, SD

Home | Current Version | Previous Version | Text Only | Print | Product List | Glossary On
Versions: 1 2 3 4 5 6 7 8 9 10 11 12 13 14 15
000
FTUS43 KFSD 191354 AAA
TAFFSD
TAF AMD
KFSD 191354Z 1914/2012 11005KT 1SM BR SCT003
      TEMPO 1914/1915 1/2SM FG SCT003
     FM191500 VRB03KT 3SM BR FEW009
     FM191600 15004KT P6SM FEW250
     FM191900 16008KT P6SM SKC
     FM200600 17007KT P6SM BKN100 WS020/20035KT
     FM200900 17006KT P6SM BKN120=

USA.gov is the U.S. government's official web portal to all federal, state and local government web resources and services.